sensor_id;sensor_type;location;lat;lon;timestamp;P1;durP1;ratioP1;P2;durP2;ratioP2
47531;SDS011;33273;52.254;7.988;2023-04-24T00:00:16;2.70;;;1.50;;
47531;SDS011;33273;52.254;7.988;2023-04-24T00:02:44;1.67;;;1.30;;
47531;SDS011;33273;52.254;7.988;2023-04-24T00:05:13;3.42;;;1.70;;
47531;SDS011;33273;52.254;7.988;2023-04-24T00:07:43;3.72;;;1.65;;
47531;SDS011;33273;52.254;7.988;2023-04-24T00:10:11;2.65;;;2.00;;
47531;SDS011;33273;52.254;7.988;2023-04-24T00:12:37;4.20;;;2.05;;
47531;SDS011;33273;52.254;7.988;2023-04-24T00:15:07;2.63;;;1.92;;
47531;SDS011;33273;52.254;7.988;2023-04-24T00:17:34;2.88;;;2.00;;
47531;SDS011;33273;52.254;7.988;2023-04-24T00:20:01;2.40;;;1.75;;
47531;SDS011;33273;52.254;7.988;2023-04-24T00:22:30;3.95;;;2.05;;
47531;SDS011;33273;52.254;7.988;2023-04-24T00:24:57;3.25;;;2.13;;
47531;SDS011;33273;52.254;7.988;2023-04-24T00:27:25;2.65;;;2.00;;
47531;SDS011;33273;52.254;7.988;2023-04-24T00:29:50;3.23;;;2.20;;
47531;SDS011;33273;52.254;7.988;2023-04-24T00:32:16;2.33;;;1.83;;
47531;SDS011;33273;52.254;7.988;2023-04-24T00:34:43;3.65;;;1.92;;
47531;SDS011;33273;52.254;7.988;2023-04-24T00:37:11;2.42;;;1.83;;
47531;SDS011;33273;52.254;7.988;2023-04-24T00:39:36;2.83;;;1.90;;
47531;SDS011;33273;52.254;7.988;2023-04-24T00:42:02;2.90;;;2.10;;
47531;SDS011;33273;52.254;7.988;2023-04-24T00:44:30;2.42;;;1.80;;
47531;SDS011;33273;52.254;7.988;2023-04-24T00:46:57;2.88;;;2.05;;
47531;SDS011;33273;52.254;7.988;2023-04-24T00:49:25;2.72;;;1.88;;
47531;SDS011;33273;52.254;7.988;2023-04-24T00:51:52;2.75;;;2.00;;
47531;SDS011;33273;52.254;7.988;2023-04-24T00:54:19;3.97;;;1.70;;
47531;SDS011;33273;52.254;7.988;2023-04-24T00:56:46;3.42;;;2.08;;
47531;SDS011;33273;52.254;7.988;2023-04-24T00:59:13;3.10;;;1.73;;
47531;SDS011;33273;52.254;7.988;2023-04-24T01:01:42;2.60;;;1.80;;
47531;SDS011;33273;52.254;7.988;2023-04-24T01:04:10;3.67;;;1.65;;
47531;SDS011;33273;52.254;7.988;2023-04-24T01:06:40;2.05;;;1.52;;
47531;SDS011;33273;52.254;7.988;2023-04-24T01:09:08;3.92;;;1.52;;
47531;SDS011;33273;52.254;7.988;2023-04-24T01:11:37;2.33;;;1.48;;
47531;SDS011;33273;52.254;7.988;2023-04-24T01:14:04;2.08;;;1.52;;
47531;SDS011;33273;52.254;7.988;2023-04-24T01:16:30;4.00;;;1.67;;
47531;SDS011;33273;52.254;7.988;2023-04-24T01:18:56;2.35;;;1.70;;
47531;SDS011;33273;52.254;7.988;2023-04-24T01:21:22;3.25;;;1.60;;
47531;SDS011;33273;52.254;7.988;2023-04-24T01:23:59;2.08;;;1.40;;
47531;SDS011;33273;52.254;7.988;2023-04-24T01:26:25;3.38;;;1.77;;
47531;SDS011;33273;52.254;7.988;2023-04-24T01:28:51;2.60;;;1.60;;
47531;SDS011;33273;52.254;7.988;2023-04-24T01:31:17;2.05;;;1.55;;
47531;SDS011;33273;52.254;7.988;2023-04-24T01:33:44;3.78;;;1.52;;
47531;SDS011;33273;52.254;7.988;2023-04-24T01:36:11;2.50;;;1.63;;
47531;SDS011;33273;52.254;7.988;2023-04-24T01:38:37;2.85;;;1.55;;
47531;SDS011;33273;52.254;7.988;2023-04-24T01:41:04;2.80;;;1.70;;
47531;SDS011;33273;52.254;7.988;2023-04-24T01:43:31;2.65;;;1.20;;
47531;SDS011;33273;52.254;7.988;2023-04-24T01:45:58;2.92;;;1.40;;
47531;SDS011;33273;52.254;7.988;2023-04-24T01:48:26;3.67;;;1.48;;
47531;SDS011;33273;52.254;7.988;2023-04-24T01:50:52;2.05;;;1.30;;
47531;SDS011;33273;52.254;7.988;2023-04-24T01:53:18;1.95;;;1.30;;
47531;SDS011;33273;52.254;7.988;2023-04-24T01:55:48;2.70;;;1.40;;
47531;SDS011;33273;52.254;7.988;2023-04-24T01:58:14;2.47;;;1.38;;
47531;SDS011;33273;52.254;7.988;2023-04-24T02:00:39;1.93;;;1.30;;
47531;SDS011;33273;52.254;7.988;2023-04-24T02:03:07;2.13;;;1.30;;
47531;SDS011;33273;52.254;7.988;2023-04-24T02:05:33;2.38;;;1.30;;
47531;SDS011;33273;52.254;7.988;2023-04-24T02:08:01;2.28;;;1.60;;
47531;SDS011;33273;52.254;7.988;2023-04-24T02:10:28;3.55;;;1.63;;
47531;SDS011;33273;52.254;7.988;2023-04-24T02:12:58;2.67;;;1.42;;
47531;SDS011;33273;52.254;7.988;2023-04-24T02:15:27;3.22;;;1.42;;
47531;SDS011;33273;52.254;7.988;2023-04-24T02:17:52;1.98;;;1.30;;
47531;SDS011;33273;52.254;7.988;2023-04-24T02:20:18;2.08;;;1.48;;
47531;SDS011;33273;52.254;7.988;2023-04-24T02:22:45;2.38;;;1.40;;
47531;SDS011;33273;52.254;7.988;2023-04-24T02:25:12;3.13;;;1.52;;
47531;SDS011;33273;52.254;7.988;2023-04-24T02:27:39;4.00;;;1.40;;
47531;SDS011;33273;52.254;7.988;2023-04-24T02:30:05;2.10;;;1.45;;
47531;SDS011;33273;52.254;7.988;2023-04-24T02:32:32;2.40;;;1.40;;
47531;SDS011;33273;52.254;7.988;2023-04-24T02:34:59;3.53;;;1.77;;
47531;SDS011;33273;52.254;7.988;2023-04-24T02:37:27;3.95;;;1.58;;
47531;SDS011;33273;52.254;7.988;2023-04-24T02:39:55;6.18;;;1.90;;
47531;SDS011;33273;52.254;7.988;2023-04-24T02:42:22;3.10;;;1.65;;
47531;SDS011;33273;52.254;7.988;2023-04-24T02:44:48;2.83;;;1.67;;
47531;SDS011;33273;52.254;7.988;2023-04-24T02:47:16;3.72;;;1.38;;
47531;SDS011;33273;52.254;7.988;2023-04-24T02:49:43;4.47;;;1.92;;
47531;SDS011;33273;52.254;7.988;2023-04-24T02:54:35;3.63;;;2.33;;
47531;SDS011;33273;52.254;7.988;2023-04-24T02:57:01;2.30;;;1.53;;
47531;SDS011;33273;52.254;7.988;2023-04-24T02:59:30;2.40;;;1.52;;
47531;SDS011;33273;52.254;7.988;2023-04-24T03:01:58;3.03;;;1.70;;
47531;SDS011;33273;52.254;7.988;2023-04-24T03:04:25;3.50;;;1.92;;
47531;SDS011;33273;52.254;7.988;2023-04-24T03:06:52;4.07;;;2.10;;
47531;SDS011;33273;52.254;7.988;2023-04-24T03:09:22;4.88;;;2.13;;
47531;SDS011;33273;52.254;7.988;2023-04-24T03:11:48;4.28;;;2.67;;
47531;SDS011;33273;52.254;7.988;2023-04-24T03:14:15;6.28;;;3.58;;
47531;SDS011;33273;52.254;7.988;2023-04-24T03:16:42;5.78;;;2.90;;
47531;SDS011;33273;52.254;7.988;2023-04-24T03:19:08;3.67;;;2.60;;
47531;SDS011;33273;52.254;7.988;2023-04-24T03:21:41;6.00;;;2.80;;
47531;SDS011;33273;52.254;7.988;2023-04-24T03:24:09;4.55;;;2.67;;
47531;SDS011;33273;52.254;7.988;2023-04-24T03:26:37;4.78;;;2.80;;
47531;SDS011;33273;52.254;7.988;2023-04-24T03:29:20;6.55;;;2.90;;
47531;SDS011;33273;52.254;7.988;2023-04-24T03:31:47;3.65;;;2.28;;
47531;SDS011;33273;52.254;7.988;2023-04-24T03:34:13;4.20;;;2.60;;
47531;SDS011;33273;52.254;7.988;2023-04-24T03:36:38;5.13;;;2.77;;
47531;SDS011;33273;52.254;7.988;2023-04-24T03:39:06;4.07;;;2.95;;
47531;SDS011;33273;52.254;7.988;2023-04-24T03:41:33;3.58;;;2.65;;
47531;SDS011;33273;52.254;7.988;2023-04-24T03:44:10;4.18;;;2.90;;
47531;SDS011;33273;52.254;7.988;2023-04-24T03:46:36;4.45;;;3.08;;
47531;SDS011;33273;52.254;7.988;2023-04-24T03:49:02;4.63;;;3.13;;
47531;SDS011;33273;52.254;7.988;2023-04-24T03:51:31;5.68;;;3.50;;
47531;SDS011;33273;52.254;7.988;2023-04-24T03:54:20;7.70;;;3.67;;
47531;SDS011;33273;52.254;7.988;2023-04-24T03:56:47;4.77;;;3.40;;
47531;SDS011;33273;52.254;7.988;2023-04-24T03:59:14;5.65;;;3.88;;
47531;SDS011;33273;52.254;7.988;2023-04-24T04:01:43;6.22;;;4.80;;
47531;SDS011;33273;52.254;7.988;2023-04-24T04:04:14;7.68;;;5.45;;
47531;SDS011;33273;52.254;7.988;2023-04-24T04:06:40;10.25;;;5.78;;
47531;SDS011;33273;52.254;7.988;2023-04-24T04:09:07;8.00;;;6.07;;
47531;SDS011;33273;52.254;7.988;2023-04-24T04:11:34;8.35;;;5.90;;
47531;SDS011;33273;52.254;7.988;2023-04-24T04:14:02;9.65;;;6.35;;
47531;SDS011;33273;52.254;7.988;2023-04-24T04:16:32;10.65;;;6.55;;
47531;SDS011;33273;52.254;7.988;2023-04-24T04:19:01;11.07;;;8.50;;
47531;SDS011;33273;52.254;7.988;2023-04-24T04:21:29;9.50;;;6.93;;
47531;SDS011;33273;52.254;7.988;2023-04-24T04:24:08;11.07;;;6.95;;
47531;SDS011;33273;52.254;7.988;2023-04-24T04:26:40;9.30;;;7.22;;
47531;SDS011;33273;52.254;7.988;2023-04-24T04:29:11;9.40;;;7.72;;
47531;SDS011;33273;52.254;7.988;2023-04-24T04:31:42;9.38;;;7.15;;
47531;SDS011;33273;52.254;7.988;2023-04-24T04:34:12;10.77;;;7.75;;
47531;SDS011;33273;52.254;7.988;2023-04-24T04:36:40;9.10;;;7.50;;
47531;SDS011;33273;52.254;7.988;2023-04-24T04:39:25;12.27;;;8.57;;
47531;SDS011;33273;52.254;7.988;2023-04-24T04:41:59;11.02;;;7.75;;
47531;SDS011;33273;52.254;7.988;2023-04-24T04:44:34;11.05;;;7.88;;
47531;SDS011;33273;52.254;7.988;2023-04-24T04:47:04;12.15;;;8.90;;
47531;SDS011;33273;52.254;7.988;2023-04-24T04:49:34;11.00;;;8.25;;
47531;SDS011;33273;52.254;7.988;2023-04-24T04:52:00;11.48;;;8.48;;
47531;SDS011;33273;52.254;7.988;2023-04-24T04:54:28;13.70;;;9.60;;
47531;SDS011;33273;52.254;7.988;2023-04-24T04:56:55;14.13;;;8.88;;
47531;SDS011;33273;52.254;7.988;2023-04-24T04:59:23;17.17;;;10.07;;
47531;SDS011;33273;52.254;7.988;2023-04-24T05:01:56;13.48;;;9.23;;
47531;SDS011;33273;52.254;7.988;2023-04-24T05:04:23;14.65;;;10.18;;
47531;SDS011;33273;52.254;7.988;2023-04-24T05:06:49;13.13;;;9.53;;
47531;SDS011;33273;52.254;7.988;2023-04-24T05:09:18;14.52;;;9.35;;
47531;SDS011;33273;52.254;7.988;2023-04-24T05:11:53;16.60;;;10.15;;
47531;SDS011;33273;52.254;7.988;2023-04-24T05:14:21;12.73;;;9.95;;
47531;SDS011;33273;52.254;7.988;2023-04-24T05:16:48;12.98;;;9.73;;
47531;SDS011;33273;52.254;7.988;2023-04-24T05:19:18;13.68;;;9.70;;
47531;SDS011;33273;52.254;7.988;2023-04-24T05:21:49;14.00;;;10.05;;
47531;SDS011;33273;52.254;7.988;2023-04-24T05:24:16;16.27;;;10.68;;
47531;SDS011;33273;52.254;7.988;2023-04-24T05:27:05;18.98;;;10.30;;
47531;SDS011;33273;52.254;7.988;2023-04-24T05:29:38;15.35;;;9.88;;
47531;SDS011;33273;52.254;7.988;2023-04-24T05:32:05;14.63;;;10.45;;
47531;SDS011;33273;52.254;7.988;2023-04-24T05:34:33;16.40;;;11.10;;
47531;SDS011;33273;52.254;7.988;2023-04-24T05:36:59;14.07;;;10.10;;
47531;SDS011;33273;52.254;7.988;2023-04-24T05:39:25;17.07;;;10.70;;
47531;SDS011;33273;52.254;7.988;2023-04-24T05:41:53;13.80;;;10.27;;
47531;SDS011;33273;52.254;7.988;2023-04-24T05:44:23;16.60;;;11.52;;
47531;SDS011;33273;52.254;7.988;2023-04-24T05:46:49;16.73;;;10.77;;
47531;SDS011;33273;52.254;7.988;2023-04-24T05:51:45;15.27;;;11.27;;
47531;SDS011;33273;52.254;7.988;2023-04-24T05:54:11;14.88;;;11.73;;
47531;SDS011;33273;52.254;7.988;2023-04-24T05:56:38;14.88;;;11.95;;
47531;SDS011;33273;52.254;7.988;2023-04-24T05:59:06;15.57;;;11.93;;
47531;SDS011;33273;52.254;7.988;2023-04-24T06:01:33;16.13;;;11.82;;
47531;SDS011;33273;52.254;7.988;2023-04-24T06:04:08;14.48;;;11.10;;
47531;SDS011;33273;52.254;7.988;2023-04-24T06:06:36;16.05;;;11.55;;
47531;SDS011;33273;52.254;7.988;2023-04-24T06:09:03;16.55;;;11.85;;
47531;SDS011;33273;52.254;7.988;2023-04-24T06:11:31;16.38;;;12.15;;
47531;SDS011;33273;52.254;7.988;2023-04-24T06:13:58;19.92;;;12.40;;
47531;SDS011;33273;52.254;7.988;2023-04-24T06:16:36;16.60;;;11.90;;
47531;SDS011;33273;52.254;7.988;2023-04-24T06:19:11;14.65;;;11.27;;
47531;SDS011;33273;52.254;7.988;2023-04-24T06:21:37;18.77;;;13.88;;
47531;SDS011;33273;52.254;7.988;2023-04-24T06:26:30;15.43;;;12.20;;
47531;SDS011;33273;52.254;7.988;2023-04-24T06:28:56;15.37;;;12.30;;
47531;SDS011;33273;52.254;7.988;2023-04-24T06:31:29;19.63;;;12.05;;
47531;SDS011;33273;52.254;7.988;2023-04-24T06:33:55;18.30;;;13.30;;
47531;SDS011;33273;52.254;7.988;2023-04-24T06:36:22;18.97;;;12.00;;
47531;SDS011;33273;52.254;7.988;2023-04-24T06:38:48;22.38;;;13.57;;
47531;SDS011;33273;52.254;7.988;2023-04-24T06:41:14;16.75;;;12.07;;
47531;SDS011;33273;52.254;7.988;2023-04-24T06:43:41;20.17;;;12.63;;
47531;SDS011;33273;52.254;7.988;2023-04-24T06:46:09;16.40;;;12.55;;
47531;SDS011;33273;52.254;7.988;2023-04-24T06:48:38;21.17;;;13.65;;
47531;SDS011;33273;52.254;7.988;2023-04-24T06:51:05;17.70;;;12.82;;
47531;SDS011;33273;52.254;7.988;2023-04-24T06:53:31;17.80;;;12.85;;
47531;SDS011;33273;52.254;7.988;2023-04-24T06:55:57;18.52;;;12.77;;
47531;SDS011;33273;52.254;7.988;2023-04-24T06:58:24;17.93;;;12.53;;
47531;SDS011;33273;52.254;7.988;2023-04-24T07:00:51;17.40;;;12.25;;
47531;SDS011;33273;52.254;7.988;2023-04-24T07:03:17;19.57;;;12.77;;
47531;SDS011;33273;52.254;7.988;2023-04-24T07:05:43;13.90;;;10.93;;
47531;SDS011;33273;52.254;7.988;2023-04-24T07:08:09;15.52;;;11.00;;
47531;SDS011;33273;52.254;7.988;2023-04-24T07:10:37;19.70;;;11.52;;
47531;SDS011;33273;52.254;7.988;2023-04-24T07:13:03;18.17;;;11.10;;
47531;SDS011;33273;52.254;7.988;2023-04-24T07:15:29;16.88;;;11.60;;
47531;SDS011;33273;52.254;7.988;2023-04-24T07:17:55;18.05;;;11.88;;
47531;SDS011;33273;52.254;7.988;2023-04-24T07:20:21;21.67;;;13.23;;
47531;SDS011;33273;52.254;7.988;2023-04-24T07:22:47;17.10;;;11.55;;
47531;SDS011;33273;52.254;7.988;2023-04-24T07:25:14;17.15;;;11.70;;
47531;SDS011;33273;52.254;7.988;2023-04-24T07:27:40;19.97;;;11.43;;
47531;SDS011;33273;52.254;7.988;2023-04-24T07:30:05;20.47;;;11.37;;
47531;SDS011;33273;52.254;7.988;2023-04-24T07:32:32;14.40;;;11.10;;
47531;SDS011;33273;52.254;7.988;2023-04-24T07:34:57;15.23;;;11.50;;
47531;SDS011;33273;52.254;7.988;2023-04-24T07:37:23;17.40;;;11.03;;
47531;SDS011;33273;52.254;7.988;2023-04-24T07:39:49;15.60;;;10.87;;
47531;SDS011;33273;52.254;7.988;2023-04-24T07:42:15;17.70;;;11.35;;
47531;SDS011;33273;52.254;7.988;2023-04-24T07:44:41;16.30;;;11.40;;
47531;SDS011;33273;52.254;7.988;2023-04-24T07:47:07;14.63;;;11.30;;
47531;SDS011;33273;52.254;7.988;2023-04-24T07:49:33;13.77;;;10.23;;
47531;SDS011;33273;52.254;7.988;2023-04-24T07:54:27;12.48;;;9.88;;
47531;SDS011;33273;52.254;7.988;2023-04-24T07:56:54;14.65;;;9.93;;
47531;SDS011;33273;52.254;7.988;2023-04-24T07:59:19;15.43;;;10.37;;
47531;SDS011;33273;52.254;7.988;2023-04-24T08:01:45;15.93;;;11.73;;
47531;SDS011;33273;52.254;7.988;2023-04-24T08:04:11;14.70;;;10.20;;
47531;SDS011;33273;52.254;7.988;2023-04-24T08:06:38;13.38;;;10.73;;
47531;SDS011;33273;52.254;7.988;2023-04-24T08:09:04;12.32;;;10.02;;
47531;SDS011;33273;52.254;7.988;2023-04-24T08:11:30;13.70;;;10.13;;
47531;SDS011;33273;52.254;7.988;2023-04-24T08:13:56;13.88;;;10.30;;
47531;SDS011;33273;52.254;7.988;2023-04-24T08:16:22;14.50;;;10.73;;
47531;SDS011;33273;52.254;7.988;2023-04-24T08:18:51;11.93;;;10.25;;
47531;SDS011;33273;52.254;7.988;2023-04-24T08:23:44;12.35;;;9.70;;
47531;SDS011;33273;52.254;7.988;2023-04-24T08:28:38;12.67;;;8.87;;
47531;SDS011;33273;52.254;7.988;2023-04-24T08:31:04;15.20;;;9.27;;
47531;SDS011;33273;52.254;7.988;2023-04-24T08:33:30;11.43;;;9.32;;
47531;SDS011;33273;52.254;7.988;2023-04-24T08:36:02;10.48;;;7.97;;
47531;SDS011;33273;52.254;7.988;2023-04-24T08:38:29;11.93;;;8.55;;
47531;SDS011;33273;52.254;7.988;2023-04-24T08:40:59;10.35;;;7.93;;
47531;SDS011;33273;52.254;7.988;2023-04-24T08:43:26;10.05;;;8.32;;
47531;SDS011;33273;52.254;7.988;2023-04-24T08:45:55;10.70;;;7.78;;
47531;SDS011;33273;52.254;7.988;2023-04-24T08:48:22;9.82;;;7.05;;
47531;SDS011;33273;52.254;7.988;2023-04-24T08:50:48;9.73;;;7.68;;
47531;SDS011;33273;52.254;7.988;2023-04-24T08:53:16;9.38;;;8.00;;
47531;SDS011;33273;52.254;7.988;2023-04-24T08:55:43;9.82;;;7.50;;
47531;SDS011;33273;52.254;7.988;2023-04-24T08:58:11;8.18;;;7.20;;
47531;SDS011;33273;52.254;7.988;2023-04-24T09:00:38;8.07;;;7.15;;
47531;SDS011;33273;52.254;7.988;2023-04-24T09:03:05;9.65;;;7.00;;
47531;SDS011;33273;52.254;7.988;2023-04-24T09:05:31;7.72;;;6.63;;
47531;SDS011;33273;52.254;7.988;2023-04-24T09:07:58;7.18;;;6.10;;
47531;SDS011;33273;52.254;7.988;2023-04-24T09:10:27;7.15;;;6.10;;
47531;SDS011;33273;52.254;7.988;2023-04-24T09:12:56;8.50;;;6.93;;
47531;SDS011;33273;52.254;7.988;2023-04-24T09:15:24;10.57;;;6.20;;
47531;SDS011;33273;52.254;7.988;2023-04-24T09:17:50;8.07;;;6.53;;
47531;SDS011;33273;52.254;7.988;2023-04-24T09:20:16;7.63;;;6.23;;
47531;SDS011;33273;52.254;7.988;2023-04-24T09:22:42;8.53;;;6.60;;
47531;SDS011;33273;52.254;7.988;2023-04-24T09:25:10;8.75;;;6.70;;
47531;SDS011;33273;52.254;7.988;2023-04-24T09:27:41;8.05;;;6.68;;
47531;SDS011;33273;52.254;7.988;2023-04-24T09:30:10;10.43;;;6.82;;
47531;SDS011;33273;52.254;7.988;2023-04-24T09:32:38;7.75;;;6.35;;
47531;SDS011;33273;52.254;7.988;2023-04-24T09:40:11;8.85;;;6.90;;
47531;SDS011;33273;52.254;7.988;2023-04-24T09:42:55;6.90;;;6.10;;
47531;SDS011;33273;52.254;7.988;2023-04-24T09:45:36;7.55;;;6.35;;
47531;SDS011;33273;52.254;7.988;2023-04-24T09:48:03;8.75;;;6.50;;
47531;SDS011;33273;52.254;7.988;2023-04-24T09:50:30;8.15;;;6.70;;
47531;SDS011;33273;52.254;7.988;2023-04-24T09:53:01;8.02;;;6.93;;
47531;SDS011;33273;52.254;7.988;2023-04-24T09:55:27;8.98;;;7.10;;
47531;SDS011;33273;52.254;7.988;2023-04-24T09:57:57;9.15;;;7.30;;
47531;SDS011;33273;52.254;7.988;2023-04-24T10:00:29;8.02;;;6.32;;
47531;SDS011;33273;52.254;7.988;2023-04-24T10:02:58;7.97;;;6.50;;
47531;SDS011;33273;52.254;7.988;2023-04-24T10:05:31;7.68;;;6.50;;
47531;SDS011;33273;52.254;7.988;2023-04-24T10:08:06;7.82;;;6.50;;
47531;SDS011;33273;52.254;7.988;2023-04-24T10:10:42;7.70;;;5.53;;
47531;SDS011;33273;52.254;7.988;2023-04-24T10:13:09;6.07;;;5.30;;
47531;SDS011;33273;52.254;7.988;2023-04-24T10:15:36;7.20;;;5.63;;
47531;SDS011;33273;52.254;7.988;2023-04-24T10:18:04;8.68;;;6.00;;
47531;SDS011;33273;52.254;7.988;2023-04-24T10:20:31;8.57;;;5.35;;
47531;SDS011;33273;52.254;7.988;2023-04-24T10:22:58;6.30;;;4.90;;
47531;SDS011;33273;52.254;7.988;2023-04-24T10:27:55;4.97;;;3.38;;
47531;SDS011;33273;52.254;7.988;2023-04-24T10:30:24;5.45;;;3.40;;
47531;SDS011;33273;52.254;7.988;2023-04-24T10:32:51;4.55;;;3.05;;
47531;SDS011;33273;52.254;7.988;2023-04-24T10:35:17;4.87;;;3.20;;
47531;SDS011;33273;52.254;7.988;2023-04-24T10:38:27;4.50;;;2.75;;
47531;SDS011;33273;52.254;7.988;2023-04-24T10:40:39;4.30;;;2.50;;
47531;SDS011;33273;52.254;7.988;2023-04-24T10:43:05;3.72;;;2.45;;
47531;SDS011;33273;52.254;7.988;2023-04-24T10:45:33;4.65;;;2.38;;
47531;SDS011;33273;52.254;7.988;2023-04-24T10:48:05;3.85;;;2.03;;
47531;SDS011;33273;52.254;7.988;2023-04-24T10:50:52;2.97;;;1.80;;
47531;SDS011;33273;52.254;7.988;2023-04-24T10:53:19;3.30;;;1.58;;
47531;SDS011;33273;52.254;7.988;2023-04-24T10:58:17;3.10;;;1.70;;
47531;SDS011;33273;52.254;7.988;2023-04-24T11:00:57;2.28;;;1.20;;
47531;SDS011;33273;52.254;7.988;2023-04-24T11:03:29;2.63;;;1.42;;
47531;SDS011;33273;52.254;7.988;2023-04-24T11:05:58;3.13;;;1.75;;
47531;SDS011;33273;52.254;7.988;2023-04-24T11:08:30;2.03;;;1.02;;
47531;SDS011;33273;52.254;7.988;2023-04-24T11:11:02;1.40;;;1.00;;
47531;SDS011;33273;52.254;7.988;2023-04-24T11:18:57;3.08;;;1.10;;
47531;SDS011;33273;52.254;7.988;2023-04-24T11:21:39;2.28;;;1.10;;
47531;SDS011;33273;52.254;7.988;2023-04-24T11:27:21;3.70;;;1.60;;
47531;SDS011;33273;52.254;7.988;2023-04-24T11:32:24;4.32;;;2.60;;
47531;SDS011;33273;52.254;7.988;2023-04-24T11:35:01;7.22;;;3.72;;
47531;SDS011;33273;52.254;7.988;2023-04-24T11:37:36;7.40;;;4.40;;
47531;SDS011;33273;52.254;7.988;2023-04-24T11:40:03;8.10;;;4.70;;
47531;SDS011;33273;52.254;7.988;2023-04-24T11:42:38;10.65;;;5.28;;
47531;SDS011;33273;52.254;7.988;2023-04-24T11:45:10;9.02;;;5.70;;
47531;SDS011;33273;52.254;7.988;2023-04-24T11:47:37;8.43;;;6.13;;
47531;SDS011;33273;52.254;7.988;2023-04-24T11:50:04;9.02;;;6.15;;
47531;SDS011;33273;52.254;7.988;2023-04-24T11:52:33;12.35;;;7.15;;
47531;SDS011;33273;52.254;7.988;2023-04-24T11:55:02;9.82;;;6.88;;
47531;SDS011;33273;52.254;7.988;2023-04-24T11:57:29;10.70;;;6.32;;
47531;SDS011;33273;52.254;7.988;2023-04-24T12:00:04;13.23;;;6.60;;
47531;SDS011;33273;52.254;7.988;2023-04-24T12:02:37;8.13;;;5.40;;
47531;SDS011;33273;52.254;7.988;2023-04-24T12:05:03;8.93;;;5.80;;
47531;SDS011;33273;52.254;7.988;2023-04-24T12:07:29;9.90;;;5.20;;
47531;SDS011;33273;52.254;7.988;2023-04-24T12:09:56;8.63;;;6.27;;
47531;SDS011;33273;52.254;7.988;2023-04-24T12:12:28;9.30;;;6.20;;
47531;SDS011;33273;52.254;7.988;2023-04-24T12:14:57;10.30;;;5.93;;
47531;SDS011;33273;52.254;7.988;2023-04-24T12:17:31;8.05;;;5.78;;
47531;SDS011;33273;52.254;7.988;2023-04-24T12:20:08;10.35;;;5.80;;
47531;SDS011;33273;52.254;7.988;2023-04-24T12:22:49;8.18;;;5.85;;
47531;SDS011;33273;52.254;7.988;2023-04-24T12:25:16;10.40;;;6.03;;
47531;SDS011;33273;52.254;7.988;2023-04-24T12:27:44;13.18;;;5.68;;
47531;SDS011;33273;52.254;7.988;2023-04-24T12:30:14;9.15;;;4.70;;
47531;SDS011;33273;52.254;7.988;2023-04-24T12:32:45;8.18;;;4.43;;
47531;SDS011;33273;52.254;7.988;2023-04-24T12:35:13;8.60;;;4.40;;
47531;SDS011;33273;52.254;7.988;2023-04-24T12:37:44;8.68;;;5.07;;
47531;SDS011;33273;52.254;7.988;2023-04-24T12:40:11;13.97;;;4.87;;
47531;SDS011;33273;52.254;7.988;2023-04-24T12:42:48;6.18;;;4.13;;
47531;SDS011;33273;52.254;7.988;2023-04-24T12:45:15;6.82;;;3.95;;
47531;SDS011;33273;52.254;7.988;2023-04-24T12:47:43;8.68;;;3.72;;
47531;SDS011;33273;52.254;7.988;2023-04-24T12:50:10;10.05;;;3.83;;
47531;SDS011;33273;52.254;7.988;2023-04-24T12:52:38;9.95;;;5.20;;
47531;SDS011;33273;52.254;7.988;2023-04-24T12:55:04;7.47;;;4.10;;
47531;SDS011;33273;52.254;7.988;2023-04-24T12:57:34;11.07;;;4.75;;
47531;SDS011;33273;52.254;7.988;2023-04-24T13:00:04;6.05;;;3.78;;
47531;SDS011;33273;52.254;7.988;2023-04-24T13:02:31;11.00;;;4.00;;
47531;SDS011;33273;52.254;7.988;2023-04-24T13:04:57;12.60;;;4.75;;
47531;SDS011;33273;52.254;7.988;2023-04-24T13:09:50;8.80;;;4.68;;
47531;SDS011;33273;52.254;7.988;2023-04-24T13:12:17;9.25;;;4.35;;
47531;SDS011;33273;52.254;7.988;2023-04-24T13:14:43;8.27;;;4.05;;
47531;SDS011;33273;52.254;7.988;2023-04-24T13:17:09;7.22;;;4.30;;
47531;SDS011;33273;52.254;7.988;2023-04-24T13:19:37;7.95;;;4.40;;
47531;SDS011;33273;52.254;7.988;2023-04-24T13:22:04;10.80;;;4.70;;
47531;SDS011;33273;52.254;7.988;2023-04-24T13:24:30;8.57;;;4.07;;
47531;SDS011;33273;52.254;7.988;2023-04-24T13:29:23;10.02;;;4.50;;
47531;SDS011;33273;52.254;7.988;2023-04-24T13:31:50;7.18;;;3.80;;
47531;SDS011;33273;52.254;7.988;2023-04-24T13:34:17;8.90;;;4.30;;
47531;SDS011;33273;52.254;7.988;2023-04-24T13:36:43;13.80;;;5.10;;
47531;SDS011;33273;52.254;7.988;2023-04-24T13:39:09;10.73;;;4.63;;
47531;SDS011;33273;52.254;7.988;2023-04-24T13:41:35;12.38;;;4.75;;
47531;SDS011;33273;52.254;7.988;2023-04-24T13:44:02;6.40;;;3.92;;
47531;SDS011;33273;52.254;7.988;2023-04-24T13:46:29;8.13;;;4.25;;
47531;SDS011;33273;52.254;7.988;2023-04-24T13:48:55;8.50;;;3.97;;
47531;SDS011;33273;52.254;7.988;2023-04-24T13:51:21;7.03;;;4.00;;
47531;SDS011;33273;52.254;7.988;2023-04-24T13:53:46;10.00;;;4.50;;
47531;SDS011;33273;52.254;7.988;2023-04-24T13:56:13;6.82;;;3.83;;
47531;SDS011;33273;52.254;7.988;2023-04-24T13:58:39;11.60;;;5.28;;
47531;SDS011;33273;52.254;7.988;2023-04-24T14:01:05;12.70;;;3.95;;
47531;SDS011;33273;52.254;7.988;2023-04-24T14:03:32;5.82;;;3.10;;
47531;SDS011;33273;52.254;7.988;2023-04-24T14:05:59;8.25;;;3.28;;
47531;SDS011;33273;52.254;7.988;2023-04-24T14:08:25;6.18;;;3.08;;
47531;SDS011;33273;52.254;7.988;2023-04-24T14:10:51;7.13;;;2.78;;
47531;SDS011;33273;52.254;7.988;2023-04-24T14:13:17;16.33;;;3.08;;
47531;SDS011;33273;52.254;7.988;2023-04-24T14:15:43;5.45;;;2.63;;
47531;SDS011;33273;52.254;7.988;2023-04-24T14:18:09;5.03;;;2.70;;
47531;SDS011;33273;52.254;7.988;2023-04-24T14:20:37;6.30;;;4.72;;
47531;SDS011;33273;52.254;7.988;2023-04-24T14:23:03;6.87;;;3.10;;
47531;SDS011;33273;52.254;7.988;2023-04-24T14:25:30;7.85;;;3.42;;
47531;SDS011;33273;52.254;7.988;2023-04-24T14:27:56;7.07;;;3.03;;
47531;SDS011;33273;52.254;7.988;2023-04-24T14:30:22;4.73;;;2.80;;
47531;SDS011;33273;52.254;7.988;2023-04-24T14:32:48;5.47;;;2.80;;
47531;SDS011;33273;52.254;7.988;2023-04-24T14:35:14;12.32;;;3.33;;
47531;SDS011;33273;52.254;7.988;2023-04-24T14:37:40;5.70;;;3.00;;
47531;SDS011;33273;52.254;7.988;2023-04-24T14:40:08;8.32;;;3.10;;
47531;SDS011;33273;52.254;7.988;2023-04-24T14:42:34;5.90;;;3.03;;
47531;SDS011;33273;52.254;7.988;2023-04-24T14:45:01;6.53;;;3.10;;
47531;SDS011;33273;52.254;7.988;2023-04-24T14:47:27;8.45;;;3.80;;
47531;SDS011;33273;52.254;7.988;2023-04-24T14:49:54;7.00;;;3.47;;
47531;SDS011;33273;52.254;7.988;2023-04-24T14:52:20;10.70;;;3.05;;
47531;SDS011;33273;52.254;7.988;2023-04-24T14:54:47;7.85;;;3.55;;
47531;SDS011;33273;52.254;7.988;2023-04-24T14:57:13;9.20;;;3.83;;
47531;SDS011;33273;52.254;7.988;2023-04-24T14:59:39;8.93;;;3.47;;
47531;SDS011;33273;52.254;7.988;2023-04-24T15:02:06;7.07;;;3.35;;
47531;SDS011;33273;52.254;7.988;2023-04-24T15:04:31;4.55;;;2.97;;
47531;SDS011;33273;52.254;7.988;2023-04-24T15:06:57;6.03;;;2.97;;
47531;SDS011;33273;52.254;7.988;2023-04-24T15:09:24;6.67;;;2.87;;
47531;SDS011;33273;52.254;7.988;2023-04-24T15:11:51;7.25;;;2.67;;
47531;SDS011;33273;52.254;7.988;2023-04-24T15:14:17;6.03;;;3.00;;
47531;SDS011;33273;52.254;7.988;2023-04-24T15:16:43;5.53;;;2.70;;
47531;SDS011;33273;52.254;7.988;2023-04-24T15:19:10;7.32;;;3.22;;
47531;SDS011;33273;52.254;7.988;2023-04-24T15:21:36;12.65;;;3.53;;
47531;SDS011;33273;52.254;7.988;2023-04-24T15:26:29;7.05;;;3.03;;
47531;SDS011;33273;52.254;7.988;2023-04-24T15:28:55;5.70;;;3.20;;